createdAt,value
2023-01-06T00:01:27.639Z,8.24
2023-01-06T00:03:59.546Z,8.11
2023-01-06T00:06:29.412Z,8.27
2023-01-06T00:08:58.871Z,8.32
2023-01-06T00:11:27.612Z,8.38
2023-01-06T00:13:57.804Z,8.28
2023-01-06T00:16:26.409Z,8.22
2023-01-06T00:18:56.729Z,8.19
2023-01-06T00:21:25.249Z,8.25
2023-01-06T00:23:53.659Z,8.20
2023-01-06T00:26:22.085Z,8.25
2023-01-06T00:28:53.513Z,8.27
2023-01-06T00:31:23.233Z,8.08
2023-01-06T00:33:51.369Z,8.17
2023-01-06T00:36:21.629Z,8.09
2023-01-06T00:38:50.964Z,7.48
2023-01-06T00:41:36.548Z,7.84
2023-01-06T00:44:04.913Z,7.96
2023-01-06T00:46:34.579Z,7.83
2023-01-06T00:49:06.326Z,7.21
2023-01-06T00:51:36.281Z,7.72
2023-01-06T00:54:04.906Z,7.68
2023-01-06T00:56:33.683Z,7.77
2023-01-06T00:59:03.534Z,7.76
2023-01-06T01:01:31.735Z,7.64
2023-01-06T01:04:01.360Z,7.45
2023-01-06T01:06:29.753Z,7.63
2023-01-06T01:08:59.547Z,7.21
2023-01-06T01:11:45.752Z,7.68
2023-01-06T01:14:15.121Z,7.61
2023-01-06T01:16:43.321Z,7.44
2023-01-06T01:19:13.960Z,7.60
2023-01-06T01:21:42.301Z,7.83
2023-01-06T01:24:10.496Z,7.75
2023-01-06T01:26:38.873Z,7.68
2023-01-06T01:29:07.147Z,7.71
2023-01-06T01:31:35.299Z,7.70
2023-01-06T01:34:03.494Z,7.60
2023-01-06T01:36:33.109Z,7.84
2023-01-06T01:39:01.506Z,7.77
2023-01-06T01:41:30.809Z,7.24
2023-01-06T01:44:00.416Z,7.46
2023-01-06T01:46:32.446Z,7.69
2023-01-06T01:49:03.510Z,7.55
2023-01-06T01:51:42.393Z,7.70
2023-01-06T01:54:20.638Z,7.70
2023-01-06T01:56:54.837Z,7.44
2023-01-06T01:59:28.244Z,7.57
2023-01-06T02:01:56.952Z,7.66
2023-01-06T02:04:27.127Z,7.61
2023-01-06T02:06:57.255Z,7.66
2023-01-06T02:09:30.921Z,7.63
2023-01-06T02:11:59.259Z,7.68
2023-01-06T02:14:29.390Z,7.67
2023-01-06T02:17:12.409Z,7.54
2023-01-06T02:20:22.106Z,7.65
2023-01-06T02:23:22.739Z,7.35
2023-01-06T02:26:21.482Z,7.54
2023-01-06T02:29:29.283Z,7.50
2023-01-06T02:32:03.562Z,7.63
2023-01-06T02:34:44.771Z,7.51
2023-01-06T02:37:26.285Z,7.66
2023-01-06T02:40:10.821Z,7.48
2023-01-06T02:42:46.390Z,7.49
2023-01-06T02:45:23.573Z,7.35
2023-01-06T02:48:03.023Z,7.47
2023-01-06T02:50:40.611Z,7.48
2023-01-06T02:53:19.251Z,7.52
2023-01-06T02:55:50.231Z,7.48
2023-01-06T02:58:27.320Z,7.45
2023-01-06T03:01:01.931Z,7.18
2023-01-06T03:03:37.260Z,7.43
2023-01-06T03:06:08.887Z,7.42
2023-01-06T03:08:38.435Z,7.25
2023-01-06T03:11:06.758Z,7.39
2023-01-06T03:13:41.157Z,7.42
2023-01-06T03:16:10.453Z,7.43
2023-01-06T03:18:42.065Z,7.08
2023-01-06T03:21:15.773Z,6.91
2023-01-06T03:23:44.421Z,7.44
2023-01-06T03:26:12.800Z,7.46
2023-01-06T03:28:41.029Z,7.39
2023-01-06T03:31:16.570Z,7.36
2023-01-06T03:33:57.884Z,7.17
2023-01-06T03:36:34.145Z,7.13
2023-01-06T03:39:10.385Z,7.19
2023-01-06T03:41:59.718Z,7.13
2023-01-06T03:44:36.503Z,6.94
2023-01-06T03:47:13.984Z,6.83
2023-01-06T03:49:51.286Z,6.73
2023-01-06T03:52:25.561Z,6.60
2023-01-06T03:54:58.585Z,6.71
2023-01-06T03:57:30.491Z,6.90
2023-01-06T04:00:03.708Z,7.01
2023-01-06T04:02:32.234Z,6.99
2023-01-06T04:05:08.718Z,6.79
2023-01-06T04:07:36.955Z,6.84
2023-01-06T04:10:05.704Z,6.80
2023-01-06T04:12:39.886Z,6.68
2023-01-06T04:15:10.626Z,6.79
2023-01-06T04:17:39.846Z,6.71
2023-01-06T04:20:12.184Z,6.68
2023-01-06T04:22:40.621Z,6.68
2023-01-06T04:25:09.590Z,6.69
2023-01-06T04:27:37.775Z,6.04
2023-01-06T04:30:07.135Z,6.34
2023-01-06T04:32:35.226Z,6.02
2023-01-06T04:35:03.453Z,6.70
2023-01-06T04:37:33.053Z,6.53
2023-01-06T04:40:01.291Z,6.69
2023-01-06T04:42:29.527Z,6.60
2023-01-06T04:44:57.664Z,5.94
2023-01-06T04:47:25.862Z,6.59
2023-01-06T04:49:53.997Z,6.36
2023-01-06T04:52:22.110Z,6.26
2023-01-06T04:54:51.663Z,6.19
2023-01-06T04:57:19.789Z,6.13
2023-01-06T04:59:47.871Z,5.37
2023-01-06T05:02:16.069Z,6.16
2023-01-06T05:04:47.920Z,5.71
2023-01-06T05:07:16.404Z,6.14
2023-01-06T05:09:44.540Z,6.10
2023-01-06T05:12:14.102Z,6.14
2023-01-06T05:14:42.229Z,6.15
2023-01-06T05:17:10.399Z,6.26
2023-01-06T05:19:38.593Z,6.35
2023-01-06T05:22:06.673Z,6.28
2023-01-06T05:24:34.825Z,6.01
2023-01-06T05:27:03.015Z,6.01
2023-01-06T05:29:32.809Z,5.94
2023-01-06T05:32:00.918Z,5.66
2023-01-06T05:34:29.039Z,5.84
2023-01-06T05:36:58.070Z,5.82
2023-01-06T05:39:26.224Z,5.87
2023-01-06T05:41:54.334Z,5.85
2023-01-06T05:44:22.447Z,5.84
2023-01-06T05:46:52.012Z,5.81
2023-01-06T05:49:20.112Z,5.82
2023-01-06T05:51:48.208Z,5.84
2023-01-06T05:54:16.371Z,5.83
2023-01-06T05:56:44.499Z,5.80
2023-01-06T05:59:12.689Z,5.82
2023-01-06T06:01:40.783Z,5.75
2023-01-06T06:04:12.740Z,5.79
2023-01-06T06:06:40.899Z,5.71
2023-01-06T06:09:09.052Z,5.63
2023-01-06T06:11:37.183Z,5.61
2023-01-06T06:14:05.283Z,5.51
2023-01-06T06:16:33.464Z,5.57
2023-01-06T06:19:01.596Z,5.57
2023-01-06T06:21:32.009Z,5.58
2023-01-06T06:24:01.231Z,4.78
2023-01-06T06:26:30.145Z,5.49
2023-01-06T06:28:58.389Z,5.24
2023-01-06T06:31:28.497Z,5.53
2023-01-06T06:33:58.795Z,5.43
2023-01-06T06:36:27.659Z,4.85
2023-01-06T06:38:57.501Z,5.25
2023-01-06T06:41:26.838Z,4.85
2023-01-06T06:43:55.276Z,5.52
2023-01-06T06:46:23.793Z,4.72
2023-01-06T06:48:52.310Z,4.55
2023-01-06T06:51:23.025Z,5.56
2023-01-06T06:53:51.874Z,5.50
2023-01-06T06:56:22.544Z,5.71
2023-01-06T06:58:50.799Z,5.65
2023-01-06T07:01:21.397Z,5.51
2023-01-06T07:03:50.151Z,5.57
2023-01-06T07:06:21.360Z,5.70
2023-01-06T07:08:50.215Z,5.71
2023-01-06T07:11:18.774Z,5.85
2023-01-06T07:13:48.797Z,5.81
2023-01-06T07:16:17.189Z,5.76
2023-01-06T07:18:45.309Z,5.94
2023-01-06T07:21:13.640Z,6.06
2023-01-06T07:23:41.797Z,6.03
2023-01-06T07:26:11.903Z,6.08
2023-01-06T07:28:40.101Z,6.31
2023-01-06T07:31:09.790Z,6.53
2023-01-06T07:33:37.961Z,6.26
2023-01-06T07:36:06.615Z,6.63
2023-01-06T07:38:34.760Z,6.85
2023-01-06T07:41:02.900Z,6.77
2023-01-06T07:43:31.106Z,6.92
2023-01-06T07:45:59.372Z,6.89
2023-01-06T07:48:29.286Z,6.45
2023-01-06T07:50:59.093Z,7.03
2023-01-06T07:53:27.527Z,7.19
2023-01-06T07:55:55.984Z,7.20
2023-01-06T07:58:25.145Z,7.56
2023-01-06T08:00:53.693Z,7.76
2023-01-06T08:03:21.972Z,7.93
2023-01-06T08:05:51.669Z,7.93
2023-01-06T08:08:19.745Z,8.19
2023-01-06T08:10:47.978Z,8.22
2023-01-06T08:13:17.192Z,8.52
2023-01-06T08:15:48.718Z,8.65
2023-01-06T08:18:16.918Z,8.75
2023-01-06T08:20:45.079Z,8.87
2023-01-06T08:23:14.678Z,9.01
2023-01-06T08:25:42.813Z,9.18
2023-01-06T08:28:10.933Z,9.17
2023-01-06T08:30:40.758Z,9.24
2023-01-06T08:33:08.882Z,9.29
2023-01-06T08:35:37.398Z,9.26
2023-01-06T08:38:05.587Z,9.30
2023-01-06T08:40:35.153Z,9.34
2023-01-06T08:43:03.353Z,9.32
2023-01-06T08:45:31.499Z,9.40
2023-01-06T08:47:59.687Z,9.40
2023-01-06T08:50:28.133Z,9.45
2023-01-06T08:52:56.268Z,9.51
2023-01-06T08:55:24.445Z,9.53
2023-01-06T08:57:55.050Z,9.51
2023-01-06T09:00:23.482Z,9.44
2023-01-06T09:02:58.155Z,9.66
2023-01-06T09:05:26.251Z,9.72
2023-01-06T09:07:54.998Z,9.78
2023-01-06T09:10:23.887Z,8.91
2023-01-06T09:12:53.508Z,9.80
2023-01-06T09:15:21.704Z,9.89
2023-01-06T09:17:50.192Z,9.92
2023-01-06T09:20:18.405Z,10.10
2023-01-06T09:22:46.758Z,10.14
2023-01-06T09:25:14.943Z,10.16
2023-01-06T09:27:43.050Z,10.06
2023-01-06T09:30:14.215Z,10.27
2023-01-06T09:32:42.312Z,10.27
2023-01-06T09:35:11.409Z,10.05
2023-01-06T09:37:39.573Z,10.24
2023-01-06T09:40:10.066Z,10.42
2023-01-06T09:42:52.769Z,10.45
2023-01-06T09:45:33.146Z,10.60
2023-01-06T09:48:05.263Z,10.62
2023-01-06T09:50:37.227Z,10.74
2023-01-06T09:53:08.061Z,10.71
2023-01-06T09:55:39.937Z,10.53
2023-01-06T09:58:14.127Z,10.67
2023-01-06T10:00:46.292Z,10.75
2023-01-06T10:03:16.371Z,10.86
2023-01-06T10:05:57.734Z,10.85
2023-01-06T10:08:35.003Z,11.04
2023-01-06T10:11:13.186Z,11.16
2023-01-06T10:13:54.110Z,11.21
2023-01-06T10:16:34.353Z,11.24
2023-01-06T10:19:16.520Z,11.30
2023-01-06T10:21:50.387Z,9.50
2023-01-06T10:24:45.367Z,11.51
2023-01-06T10:27:24.305Z,10.40
2023-01-06T10:29:55.500Z,11.63
2023-01-06T10:32:32.835Z,11.86
2023-01-06T10:35:02.070Z,11.93
2023-01-06T10:37:39.001Z,11.95
2023-01-06T10:40:19.641Z,12.25
2023-01-06T10:43:00.454Z,12.36
2023-01-06T10:45:37.983Z,12.37
2023-01-06T10:48:12.322Z,12.50
2023-01-06T10:50:40.801Z,12.30
2023-01-06T10:53:09.141Z,12.53
2023-01-06T10:55:41.885Z,12.65
2023-01-06T10:58:25.668Z,12.77
2023-01-06T11:00:59.489Z,12.82
2023-01-06T11:03:34.509Z,12.81
2023-01-06T11:06:09.811Z,12.99
2023-01-06T11:08:38.975Z,13.06
2023-01-06T11:11:26.801Z,12.99
2023-01-06T11:13:58.530Z,13.13
2023-01-06T11:16:28.945Z,13.09
2023-01-06T11:19:00.024Z,13.38
2023-01-06T11:21:40.135Z,13.45
2023-01-06T11:24:19.095Z,13.45
2023-01-06T11:26:53.313Z,13.10
2023-01-06T11:29:28.178Z,13.58
2023-01-06T11:31:57.548Z,13.34
2023-01-06T11:34:30.252Z,13.67
2023-01-06T11:36:59.326Z,13.23
2023-01-06T11:39:31.271Z,13.82
2023-01-06T11:42:06.266Z,14.10
2023-01-06T11:44:36.746Z,13.87
2023-01-06T11:47:08.361Z,14.08
2023-01-06T11:49:42.663Z,14.10
2023-01-06T11:52:22.933Z,14.16
2023-01-06T11:54:59.891Z,14.14
2023-01-06T11:57:41.413Z,14.25
2023-01-06T12:00:33.517Z,14.48
2023-01-06T12:03:09.559Z,14.53
2023-01-06T12:05:46.995Z,14.41
2023-01-06T12:08:21.093Z,14.59
2023-01-06T12:10:54.720Z,14.74
2023-01-06T12:13:23.561Z,14.79
2023-01-06T12:16:01.214Z,14.68
2023-01-06T12:18:33.288Z,14.84
2023-01-06T12:21:05.150Z,14.67
2023-01-06T12:23:36.077Z,14.98
2023-01-06T12:26:10.132Z,15.16
2023-01-06T12:28:41.753Z,15.19
2023-01-06T12:31:16.168Z,15.43
2023-01-06T12:33:51.522Z,15.71
2023-01-06T12:36:29.136Z,15.97
2023-01-06T12:38:58.684Z,15.79
2023-01-06T12:41:33.409Z,16.02
2023-01-06T12:44:11.145Z,16.28
2023-01-06T12:46:48.027Z,16.54
2023-01-06T12:49:22.982Z,16.45
2023-01-06T12:51:56.838Z,16.46
2023-01-06T12:54:30.332Z,16.07
2023-01-06T12:57:12.253Z,16.48
2023-01-06T12:59:50.799Z,16.61
2023-01-06T13:02:36.928Z,16.70
2023-01-06T13:05:24.351Z,16.66
2023-01-06T13:08:08.840Z,16.89
2023-01-06T13:10:44.200Z,17.20
2023-01-06T13:13:56.970Z,18.06
2023-01-06T13:16:32.371Z,19.40
2023-01-06T13:19:11.732Z,20.24
2023-01-06T13:21:41.355Z,20.55
2023-01-06T13:24:30.970Z,21.15
2023-01-06T13:27:40.739Z,22.55
2023-01-06T13:30:26.961Z,23.97
2023-01-06T13:33:23.873Z,25.12
2023-01-06T13:36:16.236Z,25.90
2023-01-06T13:38:58.454Z,25.42
2023-01-06T13:41:33.053Z,24.49
2023-01-06T13:44:02.965Z,23.14
2023-01-06T13:46:33.678Z,22.15
2023-01-06T13:49:05.405Z,22.23
2023-01-06T13:51:36.293Z,21.94
2023-01-06T13:54:05.518Z,21.84
2023-01-06T13:56:37.402Z,21.28
2023-01-06T13:59:23.934Z,21.06
2023-01-06T14:01:53.812Z,19.54
2023-01-06T14:04:55.258Z,17.64
2023-01-06T14:07:42.691Z,16.79
2023-01-06T14:10:32.603Z,15.72
2023-01-06T14:13:04.955Z,15.07
2023-01-06T14:15:34.981Z,14.65
2023-01-06T14:18:04.890Z,13.93
2023-01-06T14:20:36.282Z,13.04
2023-01-06T14:23:06.894Z,13.65
2023-01-06T14:25:40.711Z,13.31
2023-01-06T14:28:28.140Z,13.10
2023-01-06T14:31:28.760Z,12.79
2023-01-06T14:33:59.000Z,12.56
2023-01-06T14:36:30.869Z,11.77
2023-01-06T14:39:03.489Z,11.66
2023-01-06T14:41:36.503Z,11.76
2023-01-06T14:44:12.842Z,11.42
2023-01-06T14:46:44.584Z,11.44
2023-01-06T14:49:18.087Z,11.22
2023-01-06T14:51:47.525Z,11.13
2023-01-06T14:54:23.216Z,11.03
2023-01-06T14:56:55.476Z,10.21
2023-01-06T14:59:25.282Z,10.88
2023-01-06T15:01:59.965Z,10.91
2023-01-06T15:04:31.774Z,10.78
2023-01-06T15:07:07.174Z,10.41
2023-01-06T15:09:35.344Z,10.42
2023-01-06T15:12:03.471Z,10.36
2023-01-06T15:14:35.070Z,10.06
2023-01-06T15:17:07.481Z,10.14
2023-01-06T15:19:36.608Z,10.22
2023-01-06T15:22:09.014Z,10.02
2023-01-06T15:24:41.773Z,8.94
2023-01-06T15:27:14.924Z,9.17
2023-01-06T15:29:53.005Z,9.59
2023-01-06T15:32:22.591Z,9.18
2023-01-06T15:34:52.139Z,9.51
2023-01-06T15:37:22.294Z,9.48
2023-01-06T15:39:51.341Z,9.58
2023-01-06T15:42:23.665Z,9.31
2023-01-06T15:44:58.613Z,9.26
2023-01-06T15:47:33.499Z,9.18
2023-01-06T15:50:04.824Z,9.01
2023-01-06T15:52:36.701Z,9.05
2023-01-06T15:55:07.455Z,9.05
2023-01-06T15:57:39.354Z,8.96
2023-01-06T16:00:20.473Z,8.68
2023-01-06T16:02:49.750Z,8.63
2023-01-06T16:05:34.973Z,8.76
2023-01-06T16:08:03.381Z,8.73
2023-01-06T16:10:37.559Z,8.70
2023-01-06T16:13:15.286Z,8.64
2023-01-06T16:15:49.442Z,8.62
2023-01-06T16:18:19.518Z,8.56
2023-01-06T16:20:47.740Z,8.20
2023-01-06T16:23:26.468Z,8.34
2023-01-06T16:26:05.190Z,8.50
2023-01-06T16:28:33.971Z,8.26
2023-01-06T16:31:09.669Z,8.19
2023-01-06T16:33:41.287Z,7.88
2023-01-06T16:36:15.179Z,7.91
2023-01-06T16:38:45.175Z,7.96
2023-01-06T16:41:18.916Z,7.83
2023-01-06T16:43:47.988Z,7.28
2023-01-06T16:46:21.989Z,7.79
2023-01-06T16:48:53.278Z,7.66
2023-01-06T16:51:21.755Z,7.89
2023-01-06T16:53:50.704Z,7.81
2023-01-06T16:56:22.814Z,7.81
2023-01-06T16:58:56.905Z,7.82
2023-01-06T17:01:28.247Z,7.82
2023-01-06T17:03:59.107Z,7.69
2023-01-06T17:06:29.017Z,7.69
2023-01-06T17:09:01.575Z,7.60
2023-01-06T17:11:33.373Z,7.60
2023-01-06T17:14:05.239Z,7.76
2023-01-06T17:16:40.630Z,7.75
2023-01-06T17:19:19.512Z,7.71
2023-01-06T17:21:49.559Z,7.72
2023-01-06T17:24:21.131Z,7.69
2023-01-06T17:26:51.587Z,7.67
2023-01-06T17:29:22.053Z,7.69
2023-01-06T17:31:56.486Z,7.64
2023-01-06T17:34:31.534Z,7.82
2023-01-06T17:37:04.835Z,7.78
2023-01-06T17:39:39.025Z,7.63
2023-01-06T17:42:27.158Z,7.56
2023-01-06T17:44:58.173Z,7.19
2023-01-06T17:48:01.830Z,6.69
2023-01-06T17:50:33.039Z,7.42
2023-01-06T17:53:33.076Z,7.28
2023-01-06T17:56:03.006Z,7.28
2023-01-06T17:58:33.103Z,7.23
2023-01-06T18:01:02.123Z,7.20
2023-01-06T18:03:34.009Z,7.18
2023-01-06T18:06:19.334Z,7.05
2023-01-06T18:08:49.221Z,7.03
2023-01-06T18:11:35.495Z,7.11
2023-01-06T18:14:19.256Z,7.18
2023-01-06T18:16:48.457Z,7.15
2023-01-06T18:19:30.908Z,7.15
2023-01-06T18:21:59.338Z,7.01
2023-01-06T18:24:32.122Z,7.03
2023-01-06T18:27:01.369Z,6.73
2023-01-06T18:29:36.442Z,6.84
2023-01-06T18:32:25.125Z,6.80
2023-01-06T18:34:56.282Z,6.87
2023-01-06T18:37:26.446Z,6.87
2023-01-06T18:39:57.991Z,7.01
2023-01-06T18:42:28.502Z,6.69
2023-01-06T18:45:16.586Z,6.71
2023-01-06T18:47:47.466Z,6.52
2023-01-06T18:50:29.829Z,6.55
2023-01-06T18:52:58.840Z,6.58
2023-01-06T18:55:32.409Z,6.44
2023-01-06T18:58:03.702Z,5.85
2023-01-06T19:00:36.413Z,6.57
2023-01-06T19:03:38.329Z,6.50
2023-01-06T19:06:38.115Z,6.46
2023-01-06T19:09:19.115Z,6.27
2023-01-06T19:11:47.928Z,6.18
2023-01-06T19:14:20.068Z,6.11
2023-01-06T19:16:53.689Z,6.12
2023-01-06T19:19:28.836Z,5.91
2023-01-06T19:22:11.125Z,5.69
2023-01-06T19:24:44.540Z,6.18
2023-01-06T19:27:32.901Z,6.25
2023-01-06T19:30:42.216Z,6.23
2023-01-06T19:33:24.637Z,5.94
2023-01-06T19:35:53.985Z,6.01
2023-01-06T19:38:32.128Z,5.92
2023-01-06T19:41:02.406Z,5.73
2023-01-06T19:43:32.836Z,5.64
2023-01-06T19:46:04.976Z,5.49
2023-01-06T19:48:39.182Z,5.74
2023-01-06T19:51:24.182Z,5.30
2023-01-06T19:53:56.515Z,5.80
2023-01-06T19:56:26.404Z,5.93
2023-01-06T19:58:56.545Z,5.86
2023-01-06T20:01:25.523Z,5.74
2023-01-06T20:03:55.490Z,5.75
2023-01-06T20:06:24.907Z,5.45
2023-01-06T20:08:54.664Z,5.28
2023-01-06T20:11:24.929Z,4.49
2023-01-06T20:13:53.403Z,5.49
2023-01-06T20:16:21.700Z,5.62
2023-01-06T20:18:50.715Z,5.71
2023-01-06T20:21:18.914Z,5.56
2023-01-06T20:23:47.299Z,5.63
2023-01-06T20:26:17.164Z,5.68
2023-01-06T20:28:45.385Z,5.72
2023-01-06T20:31:13.604Z,5.57
2023-01-06T20:33:41.723Z,5.61
2023-01-06T20:36:10.144Z,5.48
2023-01-06T20:38:38.265Z,5.47
2023-01-06T20:41:06.911Z,5.45
2023-01-06T20:43:36.495Z,5.21
2023-01-06T20:46:05.702Z,5.30
2023-01-06T20:48:33.922Z,4.98
2023-01-06T20:51:02.359Z,5.39
2023-01-06T20:53:30.678Z,5.36
2023-01-06T20:55:59.043Z,5.42
2023-01-06T20:58:27.615Z,5.36
2023-01-06T21:00:57.370Z,5.54
2023-01-06T21:03:25.582Z,5.33
2023-01-06T21:05:54.023Z,5.36
2023-01-06T21:08:22.394Z,5.28
2023-01-06T21:10:50.600Z,5.20
2023-01-06T21:13:18.861Z,5.16
2023-01-06T21:15:47.105Z,4.98
2023-01-06T21:18:16.771Z,4.94
2023-01-06T21:20:44.959Z,5.23
2023-01-06T21:23:13.168Z,5.12
2023-01-06T21:25:41.399Z,5.28
2023-01-06T21:28:09.656Z,5.08
2023-01-06T21:30:37.904Z,5.21
2023-01-06T21:33:06.233Z,5.11
2023-01-06T21:35:35.893Z,5.03
2023-01-06T21:38:05.387Z,5.07
2023-01-06T21:40:33.567Z,4.97
2023-01-06T21:43:09.964Z,5.05
2023-01-06T21:45:38.603Z,5.06
2023-01-06T21:48:08.092Z,5.07
2023-01-06T21:50:40.668Z,4.79
2023-01-06T21:53:10.773Z,4.80
2023-01-06T21:55:40.555Z,4.75
2023-01-06T21:58:08.838Z,4.64
2023-01-06T22:00:37.079Z,4.73
2023-01-06T22:03:05.824Z,4.64
2023-01-06T22:05:35.123Z,4.81
2023-01-06T22:08:06.301Z,4.89
2023-01-06T22:10:35.111Z,4.92
2023-01-06T22:13:04.080Z,4.86
2023-01-06T22:15:32.674Z,4.84
2023-01-06T22:18:01.897Z,4.80
2023-01-06T22:20:32.547Z,4.91
2023-01-06T22:23:02.915Z,2.77
2023-01-06T22:25:32.614Z,4.72
2023-01-06T22:28:00.824Z,4.46
2023-01-06T22:30:30.659Z,4.69
2023-01-06T22:32:59.103Z,4.41
2023-01-06T22:35:27.355Z,4.70
2023-01-06T22:37:55.864Z,4.63
2023-01-06T22:40:24.240Z,4.59
2023-01-06T22:42:53.839Z,4.44
2023-01-06T22:45:22.139Z,4.53
2023-01-06T22:47:50.661Z,4.06
2023-01-06T22:50:19.048Z,4.51
2023-01-06T22:52:47.248Z,4.31
2023-01-06T22:55:15.452Z,4.60
2023-01-06T22:57:43.612Z,4.60
2023-01-06T23:00:16.841Z,4.46
2023-01-06T23:02:45.626Z,4.47
2023-01-06T23:05:13.898Z,4.10
2023-01-06T23:07:43.806Z,4.09
2023-01-06T23:10:15.074Z,3.69
2023-01-06T23:12:44.363Z,3.35
2023-01-06T23:15:14.187Z,4.13
2023-01-06T23:17:42.389Z,4.19
2023-01-06T23:20:11.644Z,3.99
2023-01-06T23:22:39.950Z,3.97
2023-01-06T23:25:08.867Z,3.93
2023-01-06T23:27:38.481Z,4.10
2023-01-06T23:30:07.704Z,3.97
2023-01-06T23:32:37.387Z,3.84
2023-01-06T23:35:06.007Z,4.05
2023-01-06T23:37:34.621Z,4.08
2023-01-06T23:40:02.860Z,4.15
2023-01-06T23:42:34.469Z,2.79
2023-01-06T23:45:06.091Z,4.09
2023-01-06T23:47:34.344Z,4.08
2023-01-06T23:50:04.132Z,3.91
2023-01-06T23:52:32.314Z,3.97
2023-01-06T23:55:00.475Z,3.85
2023-01-06T23:57:29.472Z,3.90
2023-01-06T23:59:57.686Z,3.87
